This is the latest recevied weather packets stored in our database for station/object K4AGR-13. If no packets are shown the sender has not sent any weather packets the latest 10 day(s).
| Time | Temp. | Humidity | Pressure | Rain* | Wind** | Luminosity | Snow |
|---|---|---|---|---|---|---|---|
| 1777497764 | 28.89° C | 57% | 1010.7 hPa | 0 mm | - | 211 W/m² | - |
| 1777497461 | 28.89° C | 57% | 1010.7 hPa | 0 mm | - | 173 W/m² | - |
| 1777497157 | 28.89° C | 56% | 1010.8 hPa | 0 mm | - | 162 W/m² | - |
| 1777496854 | 28.89° C | 57% | 1010.8 hPa | 0 mm | - | 211 W/m² | - |
| 1777496551 | 28.89° C | 57% | 1011.2 hPa | 0 mm | - | 167 W/m² | - |
| 1777496247 | 28.89° C | 57% | 1011 hPa | 0 mm | - | 235 W/m² | - |
| 1777495943 | 28.89° C | 58% | 1011 hPa | 0 mm | - | 251 W/m² | - |
| 1777495639 | 28.89° C | 58% | 1011.2 hPa | 0 mm | - | 322 W/m² | - |
| 1777494730 | 28.89° C | 57% | 1011.2 hPa | 0 mm | - | 193 W/m² | - |
| 1777494427 | 28.89° C | 55% | 1011.5 hPa | 0 mm | - | 178 W/m² | - |
| 1777494123 | 28.89° C | 55% | 1011.4 hPa | 0 mm | - | 189 W/m² | - |
| 1777493820 | 29.44° C | 54% | 1011.3 hPa | 0 mm | - | 226 W/m² | - |
| 1777493519 | 29.44° C | 54% | 1011.7 hPa | 0 mm | - | 233 W/m² | - |
| 1777492912 | 30° C | 52% | 1011.7 hPa | 0 mm | - | 293 W/m² | - |
| 1777492304 | 30° C | 52% | 1012 hPa | 0 mm | - | 406 W/m² | - |
| 1777487457 | 30.56° C | 49% | 1013.4 hPa | 0 mm | - | 643 W/m² | - |
| 1777482600 | 30.56° C | 51% | 1014.5 hPa | 0 mm | - | 1077 W/m² | - |
| 1777480782 | 29.44° C | 54% | 1015.3 hPa | 0 mm | - | 1023 W/m² | - |
| 1777480479 | 28.33° C | 57% | 1015.6 hPa | 0 mm | - | 1049 W/m² | - |
| 1777480175 | 28.33° C | 56% | 1015.7 hPa | 0 mm | - | 1018 W/m² | - |
| 1777478660 | 27.78° C | 59% | 1016 hPa | 0 mm | - | 944 W/m² | - |
| 1777477749 | 27.78° C | 58% | 1016.2 hPa | 0 mm | - | 974 W/m² | - |
| 1777477141 | 27.78° C | 61% | 1016.2 hPa | 0 mm | - | 962 W/m² | - |
| 1777476536 | 26.67° C | 64% | 1016.8 hPa | 0 mm | - | 884 W/m² | - |
| 1777475927 | 26.11° C | 67% | 1017 hPa | 0 mm | - | 325 W/m² | - |
* Rain latest hour (hover to see other rain measurements)
** Current wind speed in m/s (hover to see current wind gust speed)